Time;durP1;ratioP1;P1;durP2;ratioP2;P2;SDS_P1;SDS_P2;PMS_P1;PMS_P2;Temp;Humidity;BMP_temperature;BMP_pressure;BME280_temperature;BME280_humidity;BME280_pressure;Samples;Min_cycle;Max_cycle;Signal;HPM_P1;HPM_P2
2021/01/30 00:01:40;;;;;;;3.97;2.13;;;;;;;;;;5004256;28;20061;-62
2021/01/30 00:04:06;;;;;;;4.25;2.22;;;;;;;;;;5005082;28;20064;-62
2021/01/30 00:06:32;;;;;;;6.68;2.42;;;;;;;;;;5019323;28;20042;-62
2021/01/30 00:08:59;;;;;;;4.20;2.17;;;;;;;;;;5028388;28;20041;-65
2021/01/30 00:11:25;;;;;;;5.28;2.10;;;;;;;;;;5007489;28;20093;-62
2021/01/30 00:13:51;;;;;;;5.30;2.42;;;;;;;;;;5008368;28;20049;-64
2021/01/30 00:16:18;;;;;;;4.80;2.40;;;;;;;;;;5016173;28;20061;-63
2021/01/30 00:18:44;;;;;;;5.45;2.85;;;;;;;;;;5027772;28;20033;-62
2021/01/30 00:21:10;;;;;;;7.53;3.25;;;;;;;;;;5012952;28;20053;-62
2021/01/30 00:23:37;;;;;;;6.90;3.08;;;;;;;;;;5025992;28;20042;-62
2021/01/30 00:26:03;;;;;;;4.90;2.50;;;;;;;;;;5023091;28;20055;-61
2021/01/30 00:28:30;;;;;;;5.78;2.40;;;;;;;;;;5027180;28;20047;-62
2021/01/30 00:30:56;;;;;;;4.85;2.63;;;;;;;;;;5010700;28;20041;-62
2021/01/30 00:33:23;;;;;;;5.88;2.80;;;;;;;;;;5007354;28;20046;-62
2021/01/30 00:35:49;;;;;;;5.72;2.45;;;;;;;;;;5003146;28;20068;-62
2021/01/30 00:38:16;;;;;;;5.32;2.80;;;;;;;;;;5007247;28;20048;-62
2021/01/30 00:40:44;;;;;;;5.68;2.53;;;;;;;;;;5006612;28;20042;-64
2021/01/30 00:43:10;;;;;;;9.30;3.42;;;;;;;;;;5020153;28;20037;-62
2021/01/30 00:45:36;;;;;;;7.05;3.65;;;;;;;;;;5024177;28;20034;-63
2021/01/30 00:48:03;;;;;;;4.32;2.53;;;;;;;;;;5019241;28;20069;-62
2021/01/30 00:50:30;;;;;;;7.88;4.07;;;;;;;;;;5026253;28;20080;-63
2021/01/30 00:52:56;;;;;;;6.88;3.83;;;;;;;;;;5009039;28;20034;-62
2021/01/30 00:55:23;;;;;;;8.32;3.38;;;;;;;;;;5005345;28;20046;-62
2021/01/30 00:57:49;;;;;;;8.98;3.85;;;;;;;;;;5013388;28;20033;-62
2021/01/30 01:00:17;;;;;;;6.95;3.15;;;;;;;;;;5007260;28;20037;-62
2021/01/30 01:02:43;;;;;;;10.35;3.20;;;;;;;;;;5012914;28;20052;-62
2021/01/30 01:05:10;;;;;;;9.00;4.20;;;;;;;;;;5026272;28;20038;-63
2021/01/30 01:07:37;;;;;;;7.35;3.72;;;;;;;;;;5014596;28;20037;-63
2021/01/30 01:10:04;;;;;;;8.82;3.97;;;;;;;;;;5005804;28;20057;-63
2021/01/30 01:12:30;;;;;;;8.55;4.40;;;;;;;;;;4998996;28;20037;-62
2021/01/30 01:14:56;;;;;;;8.60;4.60;;;;;;;;;;5026409;28;20044;-62
2021/01/30 01:17:23;;;;;;;10.57;4.22;;;;;;;;;;5021157;28;20130;-63
2021/01/30 01:19:49;;;;;;;8.40;4.65;;;;;;;;;;5005885;28;20037;-62
2021/01/30 01:22:15;;;;;;;7.47;3.88;;;;;;;;;;5005881;28;20052;-62
2021/01/30 01:24:42;;;;;;;8.55;4.35;;;;;;;;;;5004231;28;20116;-62
2021/01/30 01:27:09;;;;;;;6.05;2.95;;;;;;;;;;5006806;28;20043;-61
2021/01/30 01:29:35;;;;;;;8.05;3.95;;;;;;;;;;5006079;28;20044;-63
2021/01/30 01:32:01;;;;;;;9.90;4.60;;;;;;;;;;5007999;28;20045;-63
2021/01/30 01:34:28;;;;;;;8.23;4.05;;;;;;;;;;5018970;28;20077;-61
2021/01/30 01:36:55;;;;;;;11.18;4.53;;;;;;;;;;5026623;28;20126;-63
2021/01/30 01:39:21;;;;;;;6.97;3.25;;;;;;;;;;5017676;28;20042;-64
2021/01/30 01:41:54;;;;;;;7.30;3.80;;;;;;;;;;5042798;28;20025;-62
2021/01/30 01:44:20;;;;;;;9.52;5.15;;;;;;;;;;5011682;28;20114;-62
2021/01/30 01:46:46;;;;;;;8.48;4.13;;;;;;;;;;5023267;28;20041;-63
2021/01/30 01:49:14;;;;;;;9.75;4.80;;;;;;;;;;5030913;28;20048;-63
2021/01/30 01:51:41;;;;;;;8.13;3.92;;;;;;;;;;5006198;28;20034;-62
2021/01/30 01:54:11;;;;;;;8.07;4.30;;;;;;;;;;5001597;28;20041;-63
2021/01/30 01:56:38;;;;;;;9.25;4.40;;;;;;;;;;5021846;28;20046;-64
2021/01/30 01:59:07;;;;;;;8.23;3.90;;;;;;;;;;5020819;28;20045;-63
2021/01/30 02:01:34;;;;;;;9.80;4.22;;;;;;;;;;5022178;28;20038;-63
2021/01/30 02:04:03;;;;;;;9.50;4.65;;;;;;;;;;5023552;28;20115;-62
2021/01/30 02:06:29;;;;;;;7.85;4.00;;;;;;;;;;5021091;28;20042;-62
2021/01/30 02:08:55;;;;;;;8.93;4.28;;;;;;;;;;5024758;28;20041;-62
2021/01/30 02:11:21;;;;;;;6.72;3.63;;;;;;;;;;5006342;28;20038;-62
2021/01/30 02:13:50;;;;;;;7.30;3.90;;;;;;;;;;5004676;28;20069;-63
2021/01/30 02:16:23;;;;;;;10.05;3.60;;;;;;;;;;5010675;28;20037;-63
2021/01/30 02:19:03;;;;;;;9.38;3.90;;;;;;;;;;5005255;28;20162;-61
2021/01/30 02:21:46;;;;;;;7.20;3.50;;;;;;;;;;5015215;28;20172;-62
2021/01/30 02:24:22;;;;;;;5.00;2.58;;;;;;;;;;5004275;28;20183;-62
2021/01/30 02:27:03;;;;;;;6.63;3.25;;;;;;;;;;5003078;28;20049;-62
2021/01/30 02:29:38;;;;;;;6.18;3.22;;;;;;;;;;5006577;28;20046;-61
2021/01/30 02:32:18;;;;;;;4.78;2.53;;;;;;;;;;5035365;28;20037;-62
2021/01/30 02:34:52;;;;;;;6.28;2.80;;;;;;;;;;5026077;28;20052;-62
2021/01/30 02:37:21;;;;;;;6.65;2.95;;;;;;;;;;5004189;28;20169;-64
2021/01/30 02:39:48;;;;;;;6.45;2.97;;;;;;;;;;5006524;28;20033;-61
2021/01/30 02:42:17;;;;;;;8.25;3.30;;;;;;;;;;5013210;28;20082;-62
2021/01/30 02:44:46;;;;;;;5.45;2.90;;;;;;;;;;5021419;28;20038;-62
2021/01/30 02:47:12;;;;;;;;;;;;;;;;;;5000176;28;20081;-62
2021/01/30 02:49:40;;;;;;;5.15;2.38;;;;;;;;;;5004349;28;19921;-61
2021/01/30 02:52:10;;;;;;;5.73;2.70;;;;;;;;;;5010537;28;20045;-62
2021/01/30 02:54:38;;;;;;;5.25;2.70;;;;;;;;;;5004988;28;20038;-62
2021/01/30 02:57:06;;;;;;;5.85;2.80;;;;;;;;;;5004383;28;20085;-62
2021/01/30 02:59:33;;;;;;;6.03;2.87;;;;;;;;;;5006551;28;20038;-63
2021/01/30 03:01:59;;;;;;;6.93;3.10;;;;;;;;;;5014067;28;20048;-62
2021/01/30 03:04:26;;;;;;;7.43;3.00;;;;;;;;;;5025486;28;20081;-63
2021/01/30 03:07:12;;;;;;;6.25;2.78;;;;;;;;;;5022044;28;20061;-63
2021/01/30 03:09:45;;;;;;;6.32;2.90;;;;;;;;;;5013797;28;20056;-63
2021/01/30 03:12:14;;;;;;;6.45;3.10;;;;;;;;;;5016729;28;20123;-62
2021/01/30 03:14:43;;;;;;;6.80;2.90;;;;;;;;;;5004414;28;20064;-63
2021/01/30 03:17:11;;;;;;;6.78;2.72;;;;;;;;;;5001867;28;20833;-63
2021/01/30 03:19:37;;;;;;;5.97;2.63;;;;;;;;;;5005230;28;20030;-63
2021/01/30 03:22:06;;;;;;;6.20;2.90;;;;;;;;;;5014209;28;20056;-62
2021/01/30 03:24:32;;;;;;;4.50;2.33;;;;;;;;;;5002817;28;20053;-62
2021/01/30 03:26:59;;;;;;;5.45;2.72;;;;;;;;;;5005794;28;20037;-62
2021/01/30 03:29:25;;;;;;;4.85;2.10;;;;;;;;;;5000664;28;20046;-62
2021/01/30 03:31:51;;;;;;;5.45;2.17;;;;;;;;;;5005408;28;20042;-62
2021/01/30 03:34:18;;;;;;;4.43;2.00;;;;;;;;;;5019467;28;20164;-62
2021/01/30 03:36:44;;;;;;;3.80;1.73;;;;;;;;;;5004597;28;20041;-62
2021/01/30 03:39:12;;;;;;;4.03;2.00;;;;;;;;;;5000840;28;20053;-62
2021/01/30 03:41:38;;;;;;;4.63;2.13;;;;;;;;;;5005354;28;20148;-62
2021/01/30 03:44:05;;;;;;;4.88;2.10;;;;;;;;;;5011571;28;20092;-62
2021/01/30 03:46:31;;;;;;;4.88;2.15;;;;;;;;;;5006174;28;20034;-63
2021/01/30 03:48:58;;;;;;;7.50;2.47;;;;;;;;;;5001174;28;20165;-62
2021/01/30 03:51:24;;;;;;;4.68;2.17;;;;;;;;;;5006371;28;20086;-62
2021/01/30 03:53:50;;;;;;;5.18;2.15;;;;;;;;;;5002302;28;20052;-62
2021/01/30 03:56:16;;;;;;;4.60;2.00;;;;;;;;;;5003658;28;20085;-62
2021/01/30 03:58:45;;;;;;;5.35;2.33;;;;;;;;;;5003118;28;20048;-62
2021/01/30 04:01:12;;;;;;;6.65;2.38;;;;;;;;;;5004860;28;20042;-62
2021/01/30 04:03:38;;;;;;;3.08;1.70;;;;;;;;;;5005041;28;20119;-62
2021/01/30 04:06:04;;;;;;;3.92;2.20;;;;;;;;;;5003309;28;20038;-62
2021/01/30 04:08:30;;;;;;;5.35;2.05;;;;;;;;;;5003753;28;20126;-62
2021/01/30 04:10:58;;;;;;;7.50;1.98;;;;;;;;;;5016476;28;20045;-62
2021/01/30 04:13:24;;;;;;;5.28;1.90;;;;;;;;;;5039000;28;20045;-61
2021/01/30 04:15:50;;;;;;;5.15;2.13;;;;;;;;;;5020434;28;20085;-62
2021/01/30 04:18:17;;;;;;;2.50;1.33;;;;;;;;;;5025013;28;20052;-61
2021/01/30 04:20:43;;;;;;;3.63;1.83;;;;;;;;;;5009231;28;20041;-61
2021/01/30 04:23:10;;;;;;;4.45;2.10;;;;;;;;;;5021760;28;20049;-61
2021/01/30 04:25:36;;;;;;;5.25;2.67;;;;;;;;;;5022765;28;20040;-61
2021/01/30 04:28:04;;;;;;;5.78;1.95;;;;;;;;;;5026245;28;20041;-62
2021/01/30 04:30:30;;;;;;;2.90;1.48;;;;;;;;;;5013310;28;20049;-61
2021/01/30 04:32:57;;;;;;;3.97;2.00;;;;;;;;;;5003651;28;20154;-61
2021/01/30 04:35:27;;;;;;;5.15;2.30;;;;;;;;;;5018617;28;20052;-62
2021/01/30 04:37:53;;;;;;;5.18;2.33;;;;;;;;;;5004303;28;20052;-62
2021/01/30 04:40:22;;;;;;;4.00;2.10;;;;;;;;;;5000297;28;20053;-63
2021/01/30 04:42:54;;;;;;;4.03;1.88;;;;;;;;;;5013064;28;20045;-64
2021/01/30 04:45:27;;;;;;;4.88;2.22;;;;;;;;;;5019604;28;20045;-63
2021/01/30 04:47:59;;;;;;;4.07;2.17;;;;;;;;;;5005376;28;20057;-63
2021/01/30 04:50:29;;;;;;;3.60;1.83;;;;;;;;;;5002715;28;20045;-61
2021/01/30 04:52:58;;;;;;;6.57;1.75;;;;;;;;;;5023545;28;20033;-63
2021/01/30 04:55:33;;;;;;;5.18;2.17;;;;;;;;;;5026066;28;20049;-62
2021/01/30 04:58:06;;;;;;;4.60;2.15;;;;;;;;;;5004711;28;20022;-63
2021/01/30 05:00:38;;;;;;;4.47;2.28;;;;;;;;;;5008232;28;20171;-63
2021/01/30 05:03:15;;;;;;;5.10;1.83;;;;;;;;;;5004735;28;20070;-63
2021/01/30 05:05:43;;;;;;;4.55;2.00;;;;;;;;;;5006158;28;20046;-63
2021/01/30 05:08:15;;;;;;;3.97;1.90;;;;;;;;;;5006496;28;20038;-62
2021/01/30 05:10:43;;;;;;;3.53;1.80;;;;;;;;;;5007076;28;20038;-62
2021/01/30 05:13:11;;;;;;;4.47;2.33;;;;;;;;;;5003861;28;20049;-61
2021/01/30 05:15:40;;;;;;;3.72;1.80;;;;;;;;;;5008289;28;20053;-62
2021/01/30 05:18:11;;;;;;;3.67;1.60;;;;;;;;;;5017513;28;20062;-63
2021/01/30 05:20:38;;;;;;;4.78;1.92;;;;;;;;;;5027151;28;20053;-61
2021/01/30 05:23:07;;;;;;;3.03;1.60;;;;;;;;;;5007822;28;20042;-62
2021/01/30 05:25:33;;;;;;;4.13;1.80;;;;;;;;;;5006709;28;20101;-63
2021/01/30 05:28:08;;;;;;;4.38;1.67;;;;;;;;;;5012419;28;20045;-63
2021/01/30 05:30:45;;;;;;;3.72;1.65;;;;;;;;;;5026542;28;20049;-62
2021/01/30 05:33:16;;;;;;;4.82;1.70;;;;;;;;;;5021134;28;20037;-62
2021/01/30 05:35:47;;;;;;;4.28;1.70;;;;;;;;;;5025196;28;20127;-62
2021/01/30 05:38:20;;;;;;;2.90;1.60;;;;;;;;;;5016332;28;20101;-63
2021/01/30 05:40:48;;;;;;;4.13;1.92;;;;;;;;;;5007438;28;20053;-62
2021/01/30 05:43:20;;;;;;;2.67;1.45;;;;;;;;;;5010182;28;20058;-64
2021/01/30 05:45:47;;;;;;;5.85;1.77;;;;;;;;;;4998977;28;20037;-63
2021/01/30 05:48:19;;;;;;;4.30;1.80;;;;;;;;;;5009413;28;20049;-63
2021/01/30 05:50:50;;;;;;;4.47;1.90;;;;;;;;;;5028470;28;20094;-62
2021/01/30 05:53:20;;;;;;;3.22;1.55;;;;;;;;;;5038317;28;20064;-63
2021/01/30 05:55:46;;;;;;;3.83;1.50;;;;;;;;;;5005929;28;20038;-63
2021/01/30 05:58:14;;;;;;;2.90;1.50;;;;;;;;;;5002654;28;20094;-63
2021/01/30 06:00:47;;;;;;;5.78;1.95;;;;;;;;;;4995232;28;20033;-63
2021/01/30 06:03:15;;;;;;;3.40;1.65;;;;;;;;;;5005035;28;20106;-63
2021/01/30 06:05:41;;;;;;;2.60;1.50;;;;;;;;;;5002103;28;20065;-63
2021/01/30 06:08:24;;;;;;;4.50;2.17;;;;;;;;;;5007150;28;20053;-62
2021/01/30 06:10:51;;;;;;;5.65;1.52;;;;;;;;;;5002178;28;20049;-62
2021/01/30 06:13:19;;;;;;;4.57;1.73;;;;;;;;;;5006367;28;20041;-62
2021/01/30 06:15:46;;;;;;;3.78;1.77;;;;;;;;;;5010457;28;20033;-62
2021/01/30 06:18:32;;;;;;;4.65;2.10;;;;;;;;;;5024311;28;20045;-62
2021/01/30 06:21:00;;;;;;;4.13;1.92;;;;;;;;;;5021187;28;20065;-62
2021/01/30 06:23:27;;;;;;;4.72;2.20;;;;;;;;;;5008378;28;20123;-62
2021/01/30 06:26:03;;;;;;;4.47;1.77;;;;;;;;;;4995531;28;20049;-61
2021/01/30 06:28:30;;;;;;;5.35;1.30;;;;;;;;;;5005686;28;20085;-62
2021/01/30 06:31:08;;;;;;;4.50;1.85;;;;;;;;;;5013938;28;20141;-62
2021/01/30 06:33:36;;;;;;;5.03;1.88;;;;;;;;;;5011559;28;20087;-61
2021/01/30 06:36:08;;;;;;;5.13;2.20;;;;;;;;;;5009095;28;20037;-61
2021/01/30 06:38:40;;;;;;;3.03;1.33;;;;;;;;;;5017096;28;20041;-62
2021/01/30 06:41:13;;;;;;;2.15;1.10;;;;;;;;;;5023806;28;20045;-62
2021/01/30 06:43:41;;;;;;;6.35;2.75;;;;;;;;;;5032742;28;20072;-62
2021/01/30 06:46:09;;;;;;;6.20;2.10;;;;;;;;;;5012115;28;20041;-61
2021/01/30 06:48:38;;;;;;;5.40;2.08;;;;;;;;;;5017273;28;20080;-62
2021/01/30 06:51:19;;;;;;;5.13;2.05;;;;;;;;;;5006362;28;20041;-63
2021/01/30 06:53:46;;;;;;;3.33;1.75;;;;;;;;;;5019091;28;20033;-64
2021/01/30 06:56:13;;;;;;;3.25;1.70;;;;;;;;;;5010522;28;20048;-63
2021/01/30 06:58:41;;;;;;;6.22;2.47;;;;;;;;;;5019093;28;20045;-63
2021/01/30 07:01:08;;;;;;;3.95;2.00;;;;;;;;;;5015617;28;20065;-63
2021/01/30 07:03:45;;;;;;;5.30;1.93;;;;;;;;;;5001676;28;20114;-63
2021/01/30 07:06:15;;;;;;;3.55;1.48;;;;;;;;;;5000242;28;20044;-62
2021/01/30 07:08:54;;;;;;;4.45;1.75;;;;;;;;;;5001439;28;20045;-62
2021/01/30 07:11:34;;;;;;;2.78;1.42;;;;;;;;;;5031754;28;20072;-62
2021/01/30 07:14:03;;;;;;;4.20;2.03;;;;;;;;;;5018879;28;20038;-63
2021/01/30 07:16:29;;;;;;;;;;;;;;;;;;5009259;28;20057;-62
2021/01/30 07:19:02;;;;;;;6.28;2.60;;;;;;;;;;5020028;28;19928;-63
2021/01/30 07:21:30;;;;;;;5.18;2.22;;;;;;;;;;5033904;28;20037;-63
2021/01/30 07:24:06;;;;;;;8.50;2.50;;;;;;;;;;5023545;28;20037;-63
2021/01/30 07:26:36;;;;;;;4.75;2.17;;;;;;;;;;5021994;28;20048;-64
2021/01/30 07:29:03;;;;;;;5.13;2.13;;;;;;;;;;5021029;28;20050;-63
2021/01/30 07:31:31;;;;;;;3.88;2.08;;;;;;;;;;5019897;28;20025;-63
2021/01/30 07:34:00;;;;;;;3.03;1.52;;;;;;;;;;5020197;28;20051;-62
2021/01/30 07:36:29;;;;;;;3.95;1.65;;;;;;;;;;5026557;28;20033;-62
2021/01/30 07:38:58;;;;;;;4.03;1.75;;;;;;;;;;5018634;28;20045;-63
2021/01/30 07:41:30;;;;;;;6.18;2.20;;;;;;;;;;5012736;28;20077;-63
2021/01/30 07:44:00;;;;;;;3.63;1.35;;;;;;;;;;5008375;28;20119;-61
2021/01/30 07:46:27;;;;;;;2.35;1.05;;;;;;;;;;5022293;28;20056;-62
2021/01/30 07:48:55;;;;;;;3.75;1.45;;;;;;;;;;5017045;28;20049;-63
2021/01/30 07:51:24;;;;;;;4.50;2.03;;;;;;;;;;5036966;28;20057;-62
2021/01/30 07:53:51;;;;;;;5.15;1.60;;;;;;;;;;5023047;28;20057;-61
2021/01/30 07:56:35;;;;;;;1.83;1.10;;;;;;;;;;5023054;28;20037;-63
2021/01/30 07:59:07;;;;;;;4.68;1.77;;;;;;;;;;5000910;28;20175;-62
2021/01/30 08:01:46;;;;;;;3.10;1.25;;;;;;;;;;5005856;28;20082;-62
2021/01/30 08:04:33;;;;;;;3.92;1.67;;;;;;;;;;5015246;28;20057;-62
2021/01/30 08:07:08;;;;;;;3.03;1.50;;;;;;;;;;4995875;28;20052;-61
2021/01/30 08:09:39;;;;;;;4.68;2.08;;;;;;;;;;5005849;28;20056;-63
2021/01/30 08:12:11;;;;;;;4.95;2.25;;;;;;;;;;5023181;28;20100;-62
2021/01/30 08:14:46;;;;;;;4.50;2.15;;;;;;;;;;5017243;28;20072;-62
2021/01/30 08:17:21;;;;;;;4.53;2.08;;;;;;;;;;5010010;28;20061;-61
2021/01/30 08:19:52;;;;;;;3.10;1.30;;;;;;;;;;5019138;28;20037;-61
2021/01/30 08:22:23;;;;;;;5.65;2.20;;;;;;;;;;5022477;28;20118;-63
2021/01/30 08:24:52;;;;;;;5.75;2.78;;;;;;;;;;5018536;28;20045;-62
2021/01/30 08:27:22;;;;;;;4.25;1.33;;;;;;;;;;5026494;28;20060;-61
2021/01/30 08:29:50;;;;;;;2.78;1.55;;;;;;;;;;5017699;28;20034;-61
2021/01/30 08:32:39;;;;;;;4.88;1.98;;;;;;;;;;5042806;28;20045;-61
2021/01/30 08:35:26;;;;;;;6.72;2.60;;;;;;;;;;5000469;28;20049;-62
2021/01/30 08:37:56;;;;;;;5.28;2.15;;;;;;;;;;5019873;28;20111;-63
2021/01/30 08:40:42;;;;;;;5.43;2.33;;;;;;;;;;5022627;28;20053;-62
2021/01/30 08:43:12;;;;;;;5.95;2.17;;;;;;;;;;5042495;28;20069;-63
2021/01/30 08:45:38;;;;;;;4.70;1.88;;;;;;;;;;5011497;28;20115;-62
2021/01/30 08:48:21;;;;;;;4.95;2.13;;;;;;;;;;5017930;28;20049;-62
2021/01/30 08:50:48;;;;;;;4.68;1.92;;;;;;;;;;5013109;28;20126;-62
2021/01/30 08:53:26;;;;;;;5.85;2.63;;;;;;;;;;5022826;28;20045;-62
2021/01/30 08:55:57;;;;;;;4.28;1.75;;;;;;;;;;5022174;28;20035;-62
2021/01/30 08:58:42;;;;;;;6.57;2.42;;;;;;;;;;5012207;28;20038;-63
2021/01/30 09:01:29;;;;;;;2.55;1.35;;;;;;;;;;5022151;28;20126;-63
2021/01/30 09:03:56;;;;;;;5.65;2.78;;;;;;;;;;5024192;28;20119;-62
2021/01/30 09:06:41;;;;;;;2.17;1.02;;;;;;;;;;5018834;28;20059;-63
2021/01/30 09:09:14;;;;;;;3.30;1.52;;;;;;;;;;5014052;28;20048;-62
2021/01/30 09:11:41;;;;;;;4.03;2.20;;;;;;;;;;5018852;28;20029;-63
2021/01/30 09:14:11;;;;;;;3.15;1.50;;;;;;;;;;5023569;28;20041;-61
2021/01/30 09:16:45;;;;;;;6.18;2.65;;;;;;;;;;5015132;28;20048;-62
2021/01/30 09:19:15;;;;;;;3.95;1.65;;;;;;;;;;5013333;28;20037;-64
2021/01/30 09:21:52;;;;;;;5.10;2.20;;;;;;;;;;5021944;28;20054;-63
2021/01/30 09:24:31;;;;;;;6.22;2.30;;;;;;;;;;5027338;28;20062;-62
2021/01/30 09:27:04;;;;;;;6.82;2.20;;;;;;;;;;5022288;28;20107;-63
2021/01/30 09:29:34;;;;;;;5.72;2.30;;;;;;;;;;5026098;28;20045;-63
2021/01/30 09:32:01;;;;;;;5.65;2.33;;;;;;;;;;5044484;28;20041;-62
2021/01/30 09:34:29;;;;;;;6.57;2.53;;;;;;;;;;5045787;28;20044;-61
2021/01/30 09:36:56;;;;;;;4.00;1.70;;;;;;;;;;5036707;28;20044;-63
2021/01/30 09:39:25;;;;;;;4.25;1.92;;;;;;;;;;5039164;28;20045;-62
2021/01/30 09:41:52;;;;;;;1.58;0.75;;;;;;;;;;5024113;28;20032;-62
2021/01/30 09:44:20;;;;;;;3.85;1.25;;;;;;;;;;5025555;28;20134;-64
2021/01/30 09:46:48;;;;;;;5.13;2.22;;;;;;;;;;5027514;28;20040;-62
2021/01/30 09:49:19;;;;;;;6.32;2.47;;;;;;;;;;5019003;28;20064;-63
2021/01/30 09:51:45;;;;;;;4.93;2.13;;;;;;;;;;5007330;28;20041;-62
2021/01/30 09:54:16;;;;;;;4.13;1.90;;;;;;;;;;5034468;28;20115;-61
2021/01/30 09:56:45;;;;;;;2.95;1.23;;;;;;;;;;5046109;28;20036;-63
2021/01/30 09:59:14;;;;;;;4.10;1.88;;;;;;;;;;5028744;28;20037;-63
2021/01/30 10:01:41;;;;;;;7.60;2.75;;;;;;;;;;5027539;28;20112;-63
2021/01/30 10:04:14;;;;;;;6.25;2.22;;;;;;;;;;5022007;28;20037;-61
2021/01/30 10:06:45;;;;;;;5.00;1.65;;;;;;;;;;5025612;28;20057;-63
2021/01/30 10:09:13;;;;;;;4.55;1.65;;;;;;;;;;5032919;28;20056;-61
2021/01/30 10:11:40;;;;;;;6.63;2.55;;;;;;;;;;5038510;28;20061;-63
2021/01/30 10:14:10;;;;;;;1.20;0.73;;;;;;;;;;5019488;28;20050;-63
2021/01/30 10:16:42;;;;;;;3.58;1.25;;;;;;;;;;5021762;28;20045;-63
2021/01/30 10:19:10;;;;;;;4.05;0.80;;;;;;;;;;5021015;28;20041;-62
2021/01/30 10:21:37;;;;;;;8.95;2.92;;;;;;;;;;5040159;28;20039;-63
2021/01/30 10:24:15;;;;;;;3.25;1.42;;;;;;;;;;5015993;28;20057;-61
2021/01/30 10:26:41;;;;;;;7.27;2.97;;;;;;;;;;5005270;28;20042;-62
2021/01/30 10:29:11;;;;;;;8.20;3.05;;;;;;;;;;5003520;28;20291;-63
2021/01/30 10:31:38;;;;;;;6.63;2.85;;;;;;;;;;5011243;28;20049;-61
2021/01/30 10:34:08;;;;;;;2.42;1.27;;;;;;;;;;5015432;28;20094;-62
2021/01/30 10:36:37;;;;;;;5.20;1.83;;;;;;;;;;5020922;28;20061;-62
2021/01/30 10:39:03;;;;;;;6.82;2.38;;;;;;;;;;5024028;28;20037;-63
2021/01/30 10:41:31;;;;;;;6.93;2.60;;;;;;;;;;5023531;28;20055;-62
2021/01/30 10:44:02;;;;;;;3.63;1.13;;;;;;;;;;5021850;28;20033;-62
2021/01/30 10:46:39;;;;;;;3.45;1.60;;;;;;;;;;5022615;28;20033;-61
2021/01/30 10:49:08;;;;;;;5.97;2.67;;;;;;;;;;5019651;28;20038;-61
2021/01/30 10:51:36;;;;;;;;;;;;;;;;;;5003100;28;20061;-62
2021/01/30 10:54:17;;;;;;;6.82;2.85;;;;;;;;;;5017739;28;19929;-62
2021/01/30 10:56:59;;;;;;;3.22;1.48;;;;;;;;;;5008381;28;20049;-63
2021/01/30 10:59:26;;;;;;;4.25;2.05;;;;;;;;;;5009975;28;20029;-63
2021/01/30 11:01:52;;;;;;;7.82;2.30;;;;;;;;;;5021933;28;20049;-62
2021/01/30 11:04:24;;;;;;;4.00;1.60;;;;;;;;;;5024795;28;20130;-62
2021/01/30 11:06:50;;;;;;;5.40;2.28;;;;;;;;;;5004731;28;20030;-63
2021/01/30 11:09:20;;;;;;;6.60;3.00;;;;;;;;;;5004808;28;20041;-62
2021/01/30 11:11:48;;;;;;;8.15;3.08;;;;;;;;;;5018147;28;20042;-61
2021/01/30 11:14:15;;;;;;;6.13;2.40;;;;;;;;;;5021748;28;20048;-62
2021/01/30 11:16:43;;;;;;;2.67;0.93;;;;;;;;;;5021522;28;20037;-62
2021/01/30 11:19:20;;;;;;;5.75;2.40;;;;;;;;;;5025259;28;20038;-63
2021/01/30 11:21:46;;;;;;;7.57;2.97;;;;;;;;;;5029740;28;20048;-63
2021/01/30 11:24:17;;;;;;;6.13;2.70;;;;;;;;;;5045680;28;20045;-63
2021/01/30 11:26:50;;;;;;;4.32;2.10;;;;;;;;;;5029805;28;20053;-63
2021/01/30 11:29:34;;;;;;;6.50;2.60;;;;;;;;;;5004318;28;20050;-63
2021/01/30 11:32:01;;;;;;;7.20;2.78;;;;;;;;;;5008825;28;20044;-63
2021/01/30 11:34:27;;;;;;;6.05;2.47;;;;;;;;;;5024451;28;20048;-62
2021/01/30 11:36:54;;;;;;;6.03;2.85;;;;;;;;;;5035475;28;20046;-62
2021/01/30 11:39:24;;;;;;;6.68;2.63;;;;;;;;;;5004680;28;20049;-62
2021/01/30 11:41:51;;;;;;;5.10;2.55;;;;;;;;;;5002968;28;20067;-62
2021/01/30 11:44:17;;;;;;;3.42;1.33;;;;;;;;;;5015798;28;20134;-61
2021/01/30 11:46:44;;;;;;;4.43;2.20;;;;;;;;;;5022843;28;20041;-62
2021/01/30 11:49:10;;;;;;;9.50;2.08;;;;;;;;;;5022236;28;20051;-63
2021/01/30 11:51:36;;;;;;;6.35;2.78;;;;;;;;;;5022907;28;20061;-62
2021/01/30 11:54:02;;;;;;;6.78;3.08;;;;;;;;;;5020972;28;20041;-62
2021/01/30 11:56:28;;;;;;;7.32;2.90;;;;;;;;;;5024050;28;20041;-62
2021/01/30 11:58:55;;;;;;;4.50;2.05;;;;;;;;;;5020499;28;20041;-62
2021/01/30 12:01:21;;;;;;;4.00;1.55;;;;;;;;;;5020273;28;20041;-63
2021/01/30 12:03:47;;;;;;;7.43;3.00;;;;;;;;;;5008183;28;20057;-62
2021/01/30 12:06:13;;;;;;;6.45;2.55;;;;;;;;;;5023602;28;20080;-61
2021/01/30 12:08:40;;;;;;;5.97;2.67;;;;;;;;;;5011555;28;20038;-62
2021/01/30 12:11:06;;;;;;;6.93;2.90;;;;;;;;;;5004144;28;20100;-61
2021/01/30 12:13:32;;;;;;;2.88;1.52;;;;;;;;;;5006433;28;20094;-62
2021/01/30 12:16:00;;;;;;;6.53;2.40;;;;;;;;;;5023710;28;20108;-61
2021/01/30 12:18:26;;;;;;;5.22;2.30;;;;;;;;;;5021594;28;20099;-61
2021/01/30 12:20:53;;;;;;;5.72;2.90;;;;;;;;;;5023963;28;20056;-61
2021/01/30 12:23:20;;;;;;;6.30;2.05;;;;;;;;;;5006396;28;20078;-63
2021/01/30 12:25:46;;;;;;;6.72;2.65;;;;;;;;;;5024583;28;20026;-62
2021/01/30 12:28:15;;;;;;;6.03;2.78;;;;;;;;;;5023527;28;20061;-62
2021/01/30 12:30:43;;;;;;;6.15;2.63;;;;;;;;;;5001064;28;20026;-61
2021/01/30 12:33:10;;;;;;;7.20;3.10;;;;;;;;;;4997147;28;20108;-62
2021/01/30 12:35:36;;;;;;;4.78;2.28;;;;;;;;;;5015414;28;20060;-63
2021/01/30 12:38:03;;;;;;;7.57;2.88;;;;;;;;;;5024392;28;20049;-62
2021/01/30 12:40:31;;;;;;;5.68;2.47;;;;;;;;;;5004864;28;20069;-62
2021/01/30 12:42:57;;;;;;;7.18;2.75;;;;;;;;;;5014838;28;20076;-63
2021/01/30 12:45:23;;;;;;;6.97;3.00;;;;;;;;;;5019804;28;20034;-63
2021/01/30 12:47:49;;;;;;;6.00;3.03;;;;;;;;;;5024374;28;20041;-62
2021/01/30 12:50:17;;;;;;;5.95;2.10;;;;;;;;;;5011858;28;20030;-63
2021/01/30 12:52:44;;;;;;;5.47;2.85;;;;;;;;;;5004564;28;20038;-62
2021/01/30 12:55:11;;;;;;;7.00;2.85;;;;;;;;;;5009069;28;20041;-62
2021/01/30 12:57:37;;;;;;;5.60;2.83;;;;;;;;;;5024699;28;20115;-62
2021/01/30 13:00:04;;;;;;;7.18;3.30;;;;;;;;;;5037493;28;20045;-62
2021/01/30 13:02:30;;;;;;;6.90;3.15;;;;;;;;;;5023916;28;20041;-63
2021/01/30 13:04:56;;;;;;;6.07;2.67;;;;;;;;;;5033216;28;20049;-62
2021/01/30 13:07:27;;;;;;;5.53;2.85;;;;;;;;;;5003871;28;20127;-62
2021/01/30 13:09:53;;;;;;;6.63;2.97;;;;;;;;;;4994120;28;20030;-62
2021/01/30 13:12:19;;;;;;;6.70;3.08;;;;;;;;;;5001508;28;20038;-62
2021/01/30 13:14:45;;;;;;;6.93;2.75;;;;;;;;;;4998812;28;20030;-61
2021/01/30 13:17:11;;;;;;;5.18;2.40;;;;;;;;;;5027920;28;20041;-63
2021/01/30 13:19:37;;;;;;;6.72;2.63;;;;;;;;;;5023728;28;20156;-62
2021/01/30 13:22:04;;;;;;;8.63;2.70;;;;;;;;;;5016804;28;20060;-63
2021/01/30 13:24:31;;;;;;;5.57;2.35;;;;;;;;;;5014288;28;20049;-63
2021/01/30 13:26:59;;;;;;;5.68;2.60;;;;;;;;;;5001849;28;20066;-61
2021/01/30 13:29:25;;;;;;;6.45;3.03;;;;;;;;;;5013527;28;20045;-63
2021/01/30 13:31:52;;;;;;;6.72;2.83;;;;;;;;;;5013122;28;20053;-62
2021/01/30 13:34:20;;;;;;;5.93;2.40;;;;;;;;;;5020994;28;20077;-63
2021/01/30 13:36:46;;;;;;;5.72;2.33;;;;;;;;;;5033199;28;20037;-63
2021/01/30 13:39:12;;;;;;;6.20;2.70;;;;;;;;;;5017483;28;20041;-61
2021/01/30 13:41:39;;;;;;;5.50;2.03;;;;;;;;;;5017241;28;20052;-62
2021/01/30 13:44:08;;;;;;;3.15;1.38;;;;;;;;;;5022054;28;20057;-63
2021/01/30 13:46:34;;;;;;;5.63;2.75;;;;;;;;;;5020087;28;20112;-63
2021/01/30 13:49:00;;;;;;;3.85;1.77;;;;;;;;;;5014812;28;20045;-61
2021/01/30 13:51:26;;;;;;;7.03;3.33;;;;;;;;;;5015562;28;20037;-61
2021/01/30 13:53:52;;;;;;;6.82;3.22;;;;;;;;;;5016100;28;20059;-62
2021/01/30 13:56:18;;;;;;;6.82;2.42;;;;;;;;;;4987992;28;20089;-62
2021/01/30 13:58:45;;;;;;;7.07;3.25;;;;;;;;;;5016277;28;20064;-63
2021/01/30 14:01:12;;;;;;;6.53;3.10;;;;;;;;;;5013105;28;20135;-62
2021/01/30 14:03:38;;;;;;;5.85;1.85;;;;;;;;;;5021759;28;20045;-63
2021/01/30 14:06:04;;;;;;;7.28;2.80;;;;;;;;;;4997636;28;20052;-62
2021/01/30 14:08:30;;;;;;;9.25;3.22;;;;;;;;;;5001254;28;20041;-62
2021/01/30 14:10:56;;;;;;;5.95;2.55;;;;;;;;;;5005054;28;20053;-61
2021/01/30 14:13:22;;;;;;;6.05;2.80;;;;;;;;;;5002033;28;20042;-62
2021/01/30 14:15:49;;;;;;;5.85;3.00;;;;;;;;;;5007402;28;20082;-62
2021/01/30 14:18:18;;;;;;;7.63;3.17;;;;;;;;;;5003621;28;20092;-61
2021/01/30 14:20:47;;;;;;;7.22;3.10;;;;;;;;;;5005712;28;20061;-62
2021/01/30 14:23:13;;;;;;;;;;;;;;;;;;5012649;28;20093;-60
2021/01/30 14:25:39;;;;;;;8.30;3.33;;;;;;;;;;5004967;28;20044;-63
2021/01/30 14:28:06;;;;;;;5.25;2.50;;;;;;;;;;5018517;28;20070;-61
2021/01/30 14:30:32;;;;;;;5.25;2.25;;;;;;;;;;5004449;28;20045;-62
2021/01/30 14:33:00;;;;;;;7.32;2.50;;;;;;;;;;5005024;28;20061;-62
2021/01/30 14:35:27;;;;;;;6.15;2.15;;;;;;;;;;5000668;28;20050;-61
2021/01/30 14:37:55;;;;;;;7.10;3.05;;;;;;;;;;5004287;28;20053;-61
2021/01/30 14:40:25;;;;;;;8.10;3.03;;;;;;;;;;5000548;28;20057;-63
2021/01/30 14:42:51;;;;;;;5.70;2.70;;;;;;;;;;4995163;28;20070;-62
2021/01/30 14:45:17;;;;;;;7.05;2.58;;;;;;;;;;4997062;28;20081;-61
2021/01/30 14:47:44;;;;;;;2.10;1.08;;;;;;;;;;5005711;28;20054;-63
2021/01/30 14:50:12;;;;;;;7.45;3.20;;;;;;;;;;5011443;28;20037;-61
2021/01/30 14:52:38;;;;;;;7.38;3.00;;;;;;;;;;5025405;28;20041;-61
2021/01/30 14:55:05;;;;;;;6.05;2.60;;;;;;;;;;5037049;28;20049;-61